Sunray, Texas
Current Conditions -  °F | °C
As of 3:51 AM on Sunday 23 Nov 2014 (Local Time) from KBGD Reporting Station
Clear Clear  
Wind Chill: 37°   Ceiling: Unl
Heat Index: 43°   Visibility: 10mi
Dew Point: 23°   Wind: 10mph
Humidity: 45%   Direction: 250°WSW
Pressure: 29.45"   Gusts: NA
Location:  36.02°N, 101.82°W
Report Text: KBGD 230951Z AUTO 25009KT 10SM CLR 06/M05 A2945 RMK AO2 SLP951 T00611050
Loading
Personal Weather Stations






























Interactive Weather Map New forecast layout! Learn more

10-Day Weather Forecast

Advertisements
Track Severe Weather on mobile